PWSweather.com
Personal Weather Stations
Station Observations
RODOLIVOS
Serres, Rodolivos SerresGR 62041

SerresRodolivos SerresGR 62041

Lat: 40.920725, Lon: 23.975814

Elevation: 1161

Station Type: Davis Vantage Vue

http://rodolivos-weather.gr/

Latest ConditionsUpdated 5:20:00 PM GMT+02:02 Tuesday, Sep 25, 2018
Currently Today's Max Today's Min Today's Average
Temperature 62.5°F16.9°C 64.2°F17.9°C 52.1°F11.2°C 59.3°F15.2°C
Dew Point 41.4°F5.2°C 48.9°F9.4°C 39.2°F4.0°C 43.7°F6.5°C
Winds Calm Calm 6.9 mph -11.1 kmh - - 1.6 mph 2.6 kmh
Wind Gusts -- 11.5 mph18.5 kmh - -
Humidity 46% 82% 42% 58%
Pressure 30.24 in1024.0 mb 30.25 in1024.4 mb 30.14 in1020.7 mb -
Precipitation - 0.02 in0.5 mm - -
Hour Temp Dew Point Humidity Winds Wind Gusts Pressure Precip Precip Rate Daily Precip Total
05:20 PM 62.5°F16.9°C 41.4°F5.2°C 46% Calm Calm -- 30.24 in1024.0 mb - 0.00 in0.0 mm 0.02 in0.5 mm
05:10 PM 63.0°F17.2°C 43.0°F6.1°C 48% Calm Calm -- 30.24 in1024.0 mb - 0.00 in0.0 mm 0.02 in0.5 mm
05:00 PM 63.3°F17.4°C 43.3°F6.3°C 48% Calm Calm -- 30.24 in1024.0 mb - 0.00 in0.0 mm 0.02 in0.5 mm
04:50 PM 63.4°F17.4°C 43.4°F6.3°C 48% 1.2 mph S1.9 kmh S 3.5 mph5.6 kmh 30.24 in1024.0 mb - 0.00 in0.0 mm 0.02 in0.5 mm
04:40 PM 63.5°F17.5°C 44.0°F6.7°C 49% Calm Calm 2.3 mph3.7 kmh 30.23 in1023.7 mb - 0.00 in0.0 mm 0.02 in0.5 mm
04:30 PM 63.6°F17.6°C 44.1°F6.7°C 49% 1.2 mph NW1.9 kmh NW 2.3 mph3.7 kmh 30.23 in1023.7 mb - 0.00 in0.0 mm 0.02 in0.5 mm
04:20 PM 63.8°F17.7°C 43.2°F6.2°C 47% 1.2 mph NNW1.9 kmh NNW 2.3 mph3.7 kmh 30.23 in1023.7 mb - 0.00 in0.0 mm 0.02 in0.5 mm
04:10 PM 63.9°F17.7°C 43.3°F6.3°C 47% Calm Calm 2.3 mph3.7 kmh 30.23 in1023.7 mb - 0.00 in0.0 mm 0.02 in0.5 mm
04:00 PM 64.1°F17.8°C 42.9°F6.1°C 46% 2.3 mph WSW3.7 kmh WSW 3.5 mph5.6 kmh 30.24 in1024.0 mb - 0.00 in0.0 mm 0.02 in0.5 mm
03:50 PM 64.1°F17.8°C 42.3°F5.7°C 45% 1.2 mph WNW1.9 kmh WNW 3.5 mph5.6 kmh 30.24 in1024.0 mb - 0.00 in0.0 mm 0.02 in0.5 mm
03:40 PM 64.0°F17.8°C 42.2°F5.7°C 45% 1.2 mph SW1.9 kmh SW 3.5 mph5.6 kmh 30.24 in1024.0 mb - 0.00 in0.0 mm 0.02 in0.5 mm
03:30 PM 64.2°F17.9°C 43.0°F6.1°C 46% 1.2 mph NW1.9 kmh NW 2.3 mph3.7 kmh 30.23 in1023.7 mb - 0.00 in0.0 mm 0.02 in0.5 mm
03:20 PM 64.1°F17.8°C 44.0°F6.7°C 48% 1.2 mph ESE1.9 kmh ESE 2.3 mph3.7 kmh 30.23 in1023.7 mb - 0.00 in0.0 mm 0.02 in0.5 mm
03:10 PM 64.1°F17.8°C 42.9°F6.1°C 46% 2.3 mph S3.7 kmh S 3.5 mph5.6 kmh 30.23 in1023.7 mb - 0.00 in0.0 mm 0.02 in0.5 mm
03:00 PM 64.0°F17.8°C 41.6°F5.3°C 44% 1.2 mph SSE1.9 kmh SSE 2.3 mph3.7 kmh 30.23 in1023.7 mb - 0.00 in0.0 mm 0.02 in0.5 mm
02:50 PM 63.9°F17.7°C 41.5°F5.3°C 44% 1.2 mph SSW1.9 kmh SSW 3.5 mph5.6 kmh 30.23 in1023.7 mb - 0.00 in0.0 mm 0.02 in0.5 mm
02:40 PM 63.4°F17.4°C 41.7°F5.4°C 45% 1.2 mph E1.9 kmh E 2.3 mph3.7 kmh 30.23 in1023.7 mb - 0.00 in0.0 mm 0.02 in0.5 mm
02:30 PM 63.4°F17.4°C 41.7°F5.4°C 45% 1.2 mph SE1.9 kmh SE 3.5 mph5.6 kmh 30.23 in1023.7 mb - 0.00 in0.0 mm 0.02 in0.5 mm
02:20 PM 63.7°F17.6°C 41.9°F5.5°C 45% 1.2 mph SSE1.9 kmh SSE 3.5 mph5.6 kmh 30.24 in1024.0 mb - 0.00 in0.0 mm 0.02 in0.5 mm
02:10 PM 63.9°F17.7°C 42.1°F5.6°C 45% 2.3 mph S3.7 kmh S 3.5 mph5.6 kmh 30.24 in1024.0 mb - 0.00 in0.0 mm 0.02 in0.5 mm
02:00 PM 63.5°F17.5°C 41.2°F5.1°C 44% 1.2 mph SE1.9 kmh SE 2.3 mph3.7 kmh 30.24 in1024.0 mb - 0.00 in0.0 mm 0.02 in0.5 mm
01:50 PM 63.3°F17.4°C 41.0°F5.0°C 44% Calm Calm 3.5 mph5.6 kmh 30.24 in1024.0 mb - 0.00 in0.0 mm 0.02 in0.5 mm
01:40 PM 63.0°F17.2°C 40.8°F4.9°C 44% 1.2 mph ESE1.9 kmh ESE 4.6 mph7.4 kmh 30.25 in1024.4 mb - 0.00 in0.0 mm 0.02 in0.5 mm
01:30 PM 62.8°F17.1°C 41.2°F5.1°C 45% 1.2 mph SSW1.9 kmh SSW 3.5 mph5.6 kmh 30.25 in1024.4 mb - 0.00 in0.0 mm 0.02 in0.5 mm
01:20 PM 63.1°F17.3°C 41.4°F5.2°C 45% 1.2 mph SW1.9 kmh SW 3.5 mph5.6 kmh 30.25 in1024.4 mb - 0.00 in0.0 mm 0.02 in0.5 mm
01:10 PM 63.0°F17.2°C 41.9°F5.5°C 46% 1.2 mph S1.9 kmh S 3.5 mph5.6 kmh 30.25 in1024.4 mb - 0.00 in0.0 mm 0.02 in0.5 mm
01:00 PM 63.0°F17.2°C 39.5°F4.2°C 42% Calm Calm 1.2 mph1.9 kmh 30.25 in1024.4 mb - 0.00 in0.0 mm 0.02 in0.5 mm
12:50 PM 62.6°F17.0°C 39.2°F4.0°C 42% 1.2 mph SE1.9 kmh SE 3.5 mph5.6 kmh 30.25 in1024.4 mb - 0.00 in0.0 mm 0.02 in0.5 mm
12:40 PM 62.3°F16.8°C 39.5°F4.2°C 43% Calm Calm 2.3 mph3.7 kmh 30.25 in1024.4 mb - 0.00 in0.0 mm 0.02 in0.5 mm
12:30 PM 62.0°F16.7°C 39.8°F4.3°C 44% 1.2 mph NE1.9 kmh NE 2.3 mph3.7 kmh 30.25 in1024.4 mb - 0.00 in0.0 mm 0.02 in0.5 mm
12:20 PM 61.5°F16.4°C 41.1°F5.1°C 47% Calm Calm -- 30.25 in1024.4 mb - 0.00 in0.0 mm 0.02 in0.5 mm
12:10 PM 61.2°F16.2°C 40.8°F4.9°C 47% 2.3 mph NE3.7 kmh NE 3.5 mph5.6 kmh 30.25 in1024.4 mb - 0.00 in0.0 mm 0.02 in0.5 mm
12:00 PM 60.8°F16.0°C 43.5°F6.4°C 53% 1.2 mph NE1.9 kmh NE 2.3 mph3.7 kmh 30.25 in1024.4 mb - 0.00 in0.0 mm 0.02 in0.5 mm
11:50 AM 60.1°F15.6°C 44.8°F7.1°C 57% 2.3 mph NE3.7 kmh NE 3.5 mph5.6 kmh 30.25 in1024.4 mb - 0.00 in0.0 mm 0.02 in0.5 mm
11:40 AM 59.7°F15.4°C 44.5°F6.9°C 57% Calm Calm 1.2 mph1.9 kmh 30.24 in1024.0 mb - 0.00 in0.0 mm 0.02 in0.5 mm
11:30 AM 59.1°F15.1°C 44.8°F7.1°C 59% 3.5 mph E5.6 kmh E 3.5 mph5.6 kmh 30.24 in1024.0 mb - 0.00 in0.0 mm 0.02 in0.5 mm
11:20 AM 58.8°F14.9°C 45.8°F7.7°C 62% 3.5 mph E5.6 kmh E 6.9 mph11.1 kmh 30.24 in1024.0 mb - 0.00 in0.0 mm 0.02 in0.5 mm
11:10 AM 58.6°F14.8°C 46.0°F7.8°C 63% 2.3 mph E3.7 kmh E 3.5 mph5.6 kmh 30.24 in1024.0 mb - 0.00 in0.0 mm 0.02 in0.5 mm
11:00 AM 58.4°F14.7°C 45.8°F7.7°C 63% 2.3 mph ENE3.7 kmh ENE 3.5 mph5.6 kmh 30.24 in1024.0 mb - 0.00 in0.0 mm 0.02 in0.5 mm
10:50 AM 58.1°F14.5°C 46.0°F7.8°C 64% 2.3 mph NE3.7 kmh NE 3.5 mph5.6 kmh 30.24 in1024.0 mb - 0.00 in0.0 mm 0.02 in0.5 mm
10:40 AM 57.6°F14.2°C 45.1°F7.3°C 63% 1.2 mph NE1.9 kmh NE 1.2 mph1.9 kmh 30.24 in1024.0 mb - 0.00 in0.0 mm 0.02 in0.5 mm
10:30 AM 57.3°F14.1°C 46.4°F8.0°C 67% 1.2 mph NE1.9 kmh NE 1.2 mph1.9 kmh 30.24 in1024.0 mb - 0.00 in0.0 mm 0.02 in0.5 mm
10:20 AM 57.0°F13.9°C 47.3°F8.5°C 70% Calm Calm -- 30.23 in1023.7 mb - 0.00 in0.0 mm 0.02 in0.5 mm
10:10 AM 56.8°F13.8°C 46.7°F8.2°C 69% Calm Calm -- 30.23 in1023.7 mb - 0.00 in0.0 mm 0.02 in0.5 mm
10:00 AM 56.6°F13.7°C 46.5°F8.1°C 69% Calm Calm -- 30.23 in1023.7 mb - 0.00 in0.0 mm 0.02 in0.5 mm
09:50 AM 56.5°F13.6°C 47.2°F8.4°C 71% 1.2 mph NE1.9 kmh NE 2.3 mph3.7 kmh 30.22 in1023.4 mb - 0.00 in0.0 mm 0.02 in0.5 mm
09:40 AM 56.6°F13.7°C 47.3°F8.5°C 71% 1.2 mph NE1.9 kmh NE 3.5 mph5.6 kmh 30.22 in1023.4 mb - 0.00 in0.0 mm 0.02 in0.5 mm
09:30 AM 56.8°F13.8°C 47.5°F8.6°C 71% 2.3 mph NE3.7 kmh NE 5.8 mph9.3 kmh 30.22 in1023.4 mb - 0.00 in0.0 mm 0.02 in0.5 mm
09:20 AM 56.8°F13.8°C 47.1°F8.4°C 70% 2.3 mph ENE3.7 kmh ENE 3.5 mph5.6 kmh 30.21 in1023.0 mb - 0.00 in0.0 mm 0.02 in0.5 mm
09:10 AM 56.6°F13.7°C 47.7°F8.7°C 72% 1.2 mph ENE1.9 kmh ENE 2.3 mph3.7 kmh 30.21 in1023.0 mb - 0.00 in0.0 mm 0.02 in0.5 mm
09:00 AM 56.1°F13.4°C 47.9°F8.8°C 74% Calm Calm 1.2 mph1.9 kmh 30.21 in1023.0 mb - 0.00 in0.0 mm 0.02 in0.5 mm
08:50 AM 55.3°F12.9°C 48.9°F9.4°C 79% Calm Calm 1.2 mph1.9 kmh 30.20 in1022.7 mb - 0.00 in0.0 mm 0.02 in0.5 mm
08:40 AM 53.7°F12.1°C 48.3°F9.1°C 82% Calm Calm 1.2 mph1.9 kmh 30.20 in1022.7 mb - 0.00 in0.0 mm 0.02 in0.5 mm
08:30 AM 53.3°F11.8°C 47.2°F8.4°C 80% Calm Calm 1.2 mph1.9 kmh 30.19 in1022.4 mb - 0.00 in0.0 mm 0.02 in0.5 mm
08:20 AM 52.8°F11.6°C 46.1°F7.8°C 78% Calm Calm -- 30.19 in1022.4 mb - 0.00 in0.0 mm 0.02 in0.5 mm
08:10 AM 52.6°F11.4°C 45.9°F7.7°C 78% Calm Calm -- 30.19 in1022.4 mb - 0.00 in0.0 mm 0.02 in0.5 mm
08:00 AM 52.1°F11.2°C 45.8°F7.7°C 79% 1.2 mph SSW1.9 kmh SSW 3.5 mph5.6 kmh 30.18 in1022.0 mb - 0.00 in0.0 mm 0.02 in0.5 mm
07:50 AM 52.5°F11.4°C 44.4°F6.9°C 74% 1.2 mph SE1.9 kmh SE 3.5 mph5.6 kmh 30.18 in1022.0 mb - 0.00 in0.0 mm 0.02 in0.5 mm
07:40 AM 53.0°F11.7°C 41.9°F5.5°C 66% 2.3 mph S3.7 kmh S 3.5 mph5.6 kmh 30.18 in1022.0 mb - 0.00 in0.0 mm 0.02 in0.5 mm
07:30 AM 52.8°F11.6°C 42.1°F5.6°C 67% 4.6 mph S7.4 kmh S 4.6 mph7.4 kmh 30.18 in1022.0 mb - 0.00 in0.0 mm 0.02 in0.5 mm
07:20 AM 52.5°F11.4°C 42.6°F5.9°C 69% 4.6 mph S7.4 kmh S 4.6 mph7.4 kmh 30.17 in1021.7 mb - 0.00 in0.0 mm 0.02 in0.5 mm
07:10 AM 52.2°F11.2°C 43.4°F6.3°C 72% 5.8 mph S9.3 kmh S 9.2 mph14.8 kmh 30.16 in1021.3 mb - 0.00 in0.0 mm 0.02 in0.5 mm
07:00 AM 52.6°F11.4°C 44.9°F7.2°C 75% 2.3 mph S3.7 kmh S 3.5 mph5.6 kmh 30.16 in1021.3 mb - 0.02 in0.5 mm 0.02 in0.5 mm
06:50 AM 52.7°F11.5°C 42.0°F5.6°C 67% 4.6 mph S7.4 kmh S 8.1 mph13.0 kmh 30.15 in1021.0 mb - 0.00 in0.0 mm 0.00 in0.0 mm
06:40 AM 53.0°F11.7°C 42.8°F6.0°C 68% 3.5 mph SSW5.6 kmh SSW 6.9 mph11.1 kmh 30.15 in1021.0 mb - 0.00 in0.0 mm 0.00 in0.0 mm
06:30 AM 54.3°F12.4°C 42.4°F5.8°C 64% 5.8 mph S9.3 kmh S 8.1 mph13.0 kmh 30.15 in1021.0 mb - 0.00 in0.0 mm 0.00 in0.0 mm
06:20 AM 54.8°F12.7°C 42.5°F5.8°C 63% 6.9 mph S11.1 kmh S 11.5 mph18.5 kmh 30.14 in1020.7 mb - 0.00 in0.0 mm 0.00 in0.0 mm
06:10 AM 55.3°F12.9°C 40.3°F4.6°C 57% 4.6 mph S7.4 kmh S 8.1 mph13.0 kmh 30.14 in1020.7 mb - 0.00 in0.0 mm 0.00 in0.0 mm